Main page
METAR-TAF:

METAR-TAF

Airports :

Charleroi, Belgium

Brussels South Charleroi Airport

latitude: 50-28N, longitude: 004-27E, elevation: 187 m

Current weather observation

The report was made 36 minutes ago, at 01:20 UTC
Wind 3 kt from the North/Northwest, varying between Northwest and North
Temperature 14°C
Humidity 82%
Pressure 1022 hPa
Visibility: 6000 m

METAR: EBCI 210120Z 33003KT 310V010 6000 NSC 14/11 Q1022 NOSIG

Time: 03:56 (01:56 UTC)

Forecast

The report was made 2 hours and 46 minutes ago, at 23:10 UTC
Forecast valid from 21 at 00 UTC to 22 at 06 UTC
Wind 3 kt from variable directions
Visibility: 9000 m
Temporary
from 21 at 02 UTC to 21 at 08 UTC
Visibility: 3000 m
haze
Probability 40% :
Temporary
from 21 at 04 UTC to 21 at 07 UTC
Visibility: 0500 m
Broken clouds at a height of 100 ft
Probability 30% :
Temporary
from 22 at 02 UTC to 22 at 06 UTC
rain showers

TAF: EBCI 202310Z 2100/2206 VRB03KT 9000 NSC TEMPO 2102/2108 3000 HZ PROB40 TEMPO 2104/2107 0500 BKN001 PROB30 TEMPO 2202/2206 SHRA

Weather observations and forecasts of more than 4000 airports (METAR and TAF reports).

The available stations are represented by yellow and red dots on the map.

Hover mouse over dot to see the name of the station.

Then click to see weather observations and forecasts.

To change the map : click on the green buttons with a black cross to zoom in, on the green button with a dash to zoom out, or on the green arrows for adjacent maps.


METAR-TAF: